Time;durP1;ratioP1;P1;durP2;ratioP2;P2;SDS_P1;SDS_P2;PMS_P1;PMS_P2;Temp;Humidity;BMP_temperature;BMP_pressure;BME280_temperature;BME280_humidity;BME280_pressure;Samples;Min_cycle;Max_cycle;Signal;HPM_P1;HPM_P2
2023/04/25 00:01:26;;;;;;;;;;;19.00;57.80;;;;;;6147750;29;19914;-68
2023/04/25 00:04:27;;;;;;;;;;;19.00;57.80;;;;;;6147419;29;19965;-68
2023/04/25 00:07:27;;;;;;;;;;;19.00;57.80;;;;;;6130234;29;20293;-68
2023/04/25 00:10:28;;;;;;;;;;;19.10;57.90;;;;;;6147407;29;19922;-68
2023/04/25 00:13:29;;;;;;;;;;;19.00;57.80;;;;;;6130260;29;19961;-68
2023/04/25 00:16:33;;;;;;;;;;;19.10;57.90;;;;;;6146405;29;19910;-68
2023/04/25 00:19:34;;;;;;;;;;;19.10;58.00;;;;;;6142854;29;19914;-68
2023/04/25 00:22:37;;;;;;;;;;;19.10;57.90;;;;;;6146972;29;20035;-68
2023/04/25 00:25:37;;;;;;;;;;;19.10;57.90;;;;;;6146555;29;19911;-69
2023/04/25 00:28:39;;;;;;;;;;;19.10;57.90;;;;;;6147206;29;19914;-68
2023/04/25 00:31:39;;;;;;;;;;;19.00;57.80;;;;;;6140314;29;19915;-68
2023/04/25 00:34:40;;;;;;;;;;;19.00;57.80;;;;;;6146976;29;19910;-68
2023/04/25 00:37:41;;;;;;;;;;;19.10;57.90;;;;;;6146804;28;19918;-69
2023/04/25 00:40:43;;;;;;;;;;;19.00;57.80;;;;;;6147018;29;19918;-68
2023/04/25 00:43:44;;;;;;;;;;;19.10;57.90;;;;;;6146980;29;20282;-68
2023/04/25 00:46:47;;;;;;;;;;;19.10;57.90;;;;;;6146730;28;19914;-69
2023/04/25 00:49:47;;;;;;;;;;;19.10;57.90;;;;;;6146879;29;19954;-68
2023/04/25 00:52:48;;;;;;;;;;;19.00;57.80;;;;;;6129564;29;19910;-68
2023/04/25 00:55:50;;;;;;;;;;;19.10;57.90;;;;;;6146748;28;19911;-69
2023/04/25 00:58:53;;;;;;;;;;;19.00;57.80;;;;;;6146237;29;19997;-69
2023/04/25 01:01:53;;;;;;;;;;;19.00;57.80;;;;;;6121436;29;19919;-68
2023/04/25 01:04:54;;;;;;;;;;;19.00;57.80;;;;;;6123171;29;19966;-68
2023/04/25 01:07:54;;;;;;;;;;;19.10;57.90;;;;;;6112792;29;19910;-68
2023/04/25 01:10:55;;;;;;;;;;;19.00;57.80;;;;;;6145422;29;19915;-68
2023/04/25 01:13:56;;;;;;;;;;;19.10;57.90;;;;;;6141666;29;19911;-69
2023/04/25 01:16:57;;;;;;;;;;;19.00;57.80;;;;;;6146841;28;19958;-68
2023/04/25 01:19:57;;;;;;;;;;;19.10;57.90;;;;;;6146257;29;19966;-68
2023/04/25 01:22:58;;;;;;;;;;;19.10;57.90;;;;;;6129442;29;19914;-68
2023/04/25 01:25:59;;;;;;;;;;;19.10;57.90;;;;;;6146190;28;19910;-69
2023/04/25 01:28:59;;;;;;;;;;;19.10;57.90;;;;;;6146575;29;20373;-68
2023/04/25 01:32:01;;;;;;;;;;;19.00;57.80;;;;;;6146412;29;19917;-68
2023/04/25 01:35:02;;;;;;;;;;;19.00;57.80;;;;;;6146453;29;19919;-68
2023/04/25 01:38:03;;;;;;;;;;;19.10;57.90;;;;;;6140354;29;19953;-68
2023/04/25 01:41:04;;;;;;;;;;;19.10;57.90;;;;;;6146352;29;20353;-68
2023/04/25 01:44:05;;;;;;;;;;;19.10;57.90;;;;;;6146224;28;19914;-69
2023/04/25 01:47:06;;;;;;;;;;;19.10;57.90;;;;;;6150540;28;19911;-69
2023/04/25 01:50:07;;;;;;;;;;;19.00;57.80;;;;;;6150467;29;20346;-68
2023/04/25 01:53:09;;;;;;;;;;;19.10;57.90;;;;;;6150263;29;19933;-69
2023/04/25 01:56:10;;;;;;;;;;;19.10;57.90;;;;;;6150353;28;19911;-68
2023/04/25 01:59:11;;;;;;;;;;;19.10;57.90;;;;;;6165044;28;19918;-68
2023/04/25 02:02:11;;;;;;;;;;;19.00;57.80;;;;;;6132912;29;19914;-68
2023/04/25 02:05:12;;;;;;;;;;;19.10;57.90;;;;;;6150151;29;19918;-69
2023/04/25 02:08:12;;;;;;;;;;;19.00;57.80;;;;;;6149953;29;19918;-69
2023/04/25 02:11:13;;;;;;;;;;;19.00;57.80;;;;;;6148722;29;19917;-68
2023/04/25 02:14:14;;;;;;;;;;;19.10;57.90;;;;;;6149671;29;19941;-68
2023/04/25 02:17:15;;;;;;;;;;;19.00;57.80;;;;;;6150113;28;20563;-69
2023/04/25 02:20:17;;;;;;;;;;;19.10;57.90;;;;;;6149418;29;19915;-69
2023/04/25 02:23:18;;;;;;;;;;;19.00;57.80;;;;;;6149372;29;19915;-68
2023/04/25 02:26:19;;;;;;;;;;;19.10;57.90;;;;;;6149471;28;19911;-69
2023/04/25 02:29:20;;;;;;;;;;;19.10;57.90;;;;;;6149599;29;19914;-69
2023/04/25 02:32:20;;;;;;;;;;;19.10;57.90;;;;;;6149586;29;20016;-68
2023/04/25 02:35:21;;;;;;;;;;;19.10;57.90;;;;;;6132206;28;19910;-68
2023/04/25 02:38:22;;;;;;;;;;;19.00;57.80;;;;;;6149444;29;19922;-68
2023/04/25 02:41:22;;;;;;;;;;;19.10;57.90;;;;;;6148979;29;19918;-68
2023/04/25 02:44:23;;;;;;;;;;;19.10;57.90;;;;;;6149392;29;19977;-68
2023/04/25 02:47:24;;;;;;;;;;;19.10;57.90;;;;;;6149147;28;19945;-69
2023/04/25 02:50:24;;;;;;;;;;;19.10;57.90;;;;;;6131942;29;20295;-69
2023/04/25 02:53:25;;;;;;;;;;;19.10;57.80;;;;;;6148984;29;19910;-69
2023/04/25 02:56:26;;;;;;;;;;;19.10;57.80;;;;;;6162724;28;20000;-68
2023/04/25 02:59:27;;;;;;;;;;;19.10;57.80;;;;;;6148943;29;19918;-68
2023/04/25 03:02:27;;;;;;;;;;;19.00;57.80;;;;;;6148638;29;19942;-68
2023/04/25 03:05:28;;;;;;;;;;;19.10;57.80;;;;;;6145336;29;19911;-68
2023/04/25 03:08:32;;;;;;;;;;;19.00;57.80;;;;;;6131326;29;19923;-68
2023/04/25 03:11:33;;;;;;;;;;;19.00;57.80;;;;;;6131204;29;19922;-68
2023/04/25 03:14:33;;;;;;;;;;;19.10;57.80;;;;;;6148544;29;19911;-69
2023/04/25 03:17:34;;;;;;;;;;;19.10;57.90;;;;;;6148400;28;19946;-68
2023/04/25 03:20:35;;;;;;;;;;;19.00;57.80;;;;;;6148511;29;19914;-68
2023/04/25 03:23:35;;;;;;;;;;;19.10;57.80;;;;;;6147825;29;19914;-68
2023/04/25 03:26:36;;;;;;;;;;;19.00;57.80;;;;;;6148100;29;19990;-68
2023/04/25 03:29:36;;;;;;;;;;;19.00;57.80;;;;;;6148118;29;19910;-68
2023/04/25 03:32:37;;;;;;;;;;;19.10;57.90;;;;;;6144732;29;19911;-68
2023/04/25 03:35:38;;;;;;;;;;;19.10;57.80;;;;;;6144431;28;19910;-68
2023/04/25 03:38:38;;;;;;;;;;;19.00;57.80;;;;;;6130943;29;19938;-68
2023/04/25 03:41:39;;;;;;;;;;;19.10;58.50;;;;;;6147611;29;19917;-68
2023/04/25 03:44:40;;;;;;;;;;;19.10;57.80;;;;;;6147846;29;20405;-68
2023/04/25 03:47:40;;;;;;;;;;;19.10;57.80;;;;;;6147701;28;19914;-68
2023/04/25 03:50:41;;;;;;;;;;;19.10;57.80;;;;;;6147935;29;19926;-68
2023/04/25 03:53:41;;;;;;;;;;;19.10;57.80;;;;;;6146967;29;19930;-68
2023/04/25 03:56:42;;;;;;;;;;;19.10;57.80;;;;;;6147698;28;19915;-69
2023/04/25 04:03:21;;;;;;;;;;;19.10;57.80;;;;;;6147133;29;19922;-69
2023/04/25 04:06:21;;;;;;;;;;;19.10;57.80;;;;;;6147534;28;19933;-68
2023/04/25 04:09:22;;;;;;;;;;;19.10;57.80;;;;;;6144841;28;19974;-68
2023/04/25 04:12:23;;;;;;;;;;;19.10;57.70;;;;;;6142448;29;19918;-68
2023/04/25 04:15:23;;;;;;;;;;;19.00;57.70;;;;;;6146885;28;19911;-68
2023/04/25 04:18:24;;;;;;;;;;;19.10;58.50;;;;;;6147331;29;19992;-68
2023/04/25 04:21:26;;;;;;;;;;;19.10;57.80;;;;;;6146825;29;20211;-68
2023/04/25 04:24:27;;;;;;;;;;;19.10;57.80;;;;;;6147155;29;19911;-68
2023/04/25 04:27:29;;;;;;;;;;;19.10;57.80;;;;;;6146731;28;20045;-68
2023/04/25 04:30:30;;;;;;;;;;;19.10;57.80;;;;;;6147029;29;19993;-68
2023/04/25 04:33:31;;;;;;;;;;;19.10;57.80;;;;;;6146833;29;20010;-68
2023/04/25 04:36:32;;;;;;;;;;;19.10;57.80;;;;;;6146881;28;19914;-68
2023/04/25 04:39:35;;;;;;;;;;;19.10;57.80;;;;;;6147632;29;19919;-68
2023/04/25 04:42:36;;;;;;;;;;;19.10;57.80;;;;;;6146833;29;19922;-69
2023/04/25 04:45:40;;;;;;;;;;;19.10;57.80;;;;;;6146695;28;19914;-68
2023/04/25 04:48:40;;;;;;;;;;;19.10;57.80;;;;;;6146857;29;20377;-68
2023/04/25 04:51:44;;;;;;;;;;;19.10;58.40;;;;;;6147186;29;19918;-69
2023/04/25 04:54:44;;;;;;;;;;;19.10;57.70;;;;;;6129219;29;19972;-68
2023/04/25 04:57:45;;;;;;;;;;;19.10;57.70;;;;;;6146466;29;19938;-68
2023/04/25 05:00:46;;;;;;;;;;;19.10;57.80;;;;;;6146114;29;19919;-68
2023/04/25 05:03:46;;;;;;;;;;;19.10;57.70;;;;;;6144772;29;19919;-69
2023/04/25 05:06:47;;;;;;;;;;;19.10;57.80;;;;;;6144197;29;20005;-69
2023/04/25 05:09:48;;;;;;;;;;;19.10;57.80;;;;;;6128544;28;19930;-69
2023/04/25 05:12:48;;;;;;;;;;;19.10;57.80;;;;;;6132809;28;20563;-69
2023/04/25 05:15:49;;;;;;;;;;;19.10;57.80;;;;;;6139655;29;19910;-69
2023/04/25 05:18:50;;;;;;;;;;;19.10;57.80;;;;;;6128343;28;19911;-69
2023/04/25 05:21:50;;;;;;;;;;;19.10;57.70;;;;;;6144402;29;19914;-69
2023/04/25 05:24:51;;;;;;;;;;;19.10;57.80;;;;;;6149031;29;19965;-69
2023/04/25 05:27:52;;;;;;;;;;;19.10;57.80;;;;;;6149160;29;19910;-69
2023/04/25 05:30:53;;;;;;;;;;;19.10;57.80;;;;;;6150182;29;19960;-69
2023/04/25 05:33:53;;;;;;;;;;;19.10;57.80;;;;;;6150146;29;19911;-69
2023/04/25 05:36:55;;;;;;;;;;;19.10;57.70;;;;;;6132583;29;20093;-69
2023/04/25 05:39:56;;;;;;;;;;;19.10;57.70;;;;;;6150348;29;20293;-69
2023/04/25 05:42:56;;;;;;;;;;;19.10;57.70;;;;;;6149448;29;19925;-69
2023/04/25 05:45:57;;;;;;;;;;;19.10;57.70;;;;;;6142882;29;20444;-69
2023/04/25 05:48:58;;;;;;;;;;;19.10;58.50;;;;;;6149409;29;20031;-69
2023/04/25 05:51:58;;;;;;;;;;;19.10;57.80;;;;;;6132755;29;19914;-69
2023/04/25 05:54:59;;;;;;;;;;;19.10;57.70;;;;;;6149766;28;19974;-69
2023/04/25 05:58:00;;;;;;;;;;;19.10;57.80;;;;;;6125346;29;19961;-70
2023/04/25 06:01:01;;;;;;;;;;;19.10;57.70;;;;;;6134704;29;19918;-70
2023/04/25 06:04:02;;;;;;;;;;;19.10;57.70;;;;;;6134249;29;19914;-69
2023/04/25 06:07:02;;;;;;;;;;;19.10;57.80;;;;;;6151821;28;19946;-70
2023/04/25 06:10:06;;;;;;;;;;;19.10;57.80;;;;;;6134747;29;19922;-69
2023/04/25 06:13:06;;;;;;;;;;;19.10;57.70;;;;;;6152438;29;19911;-69
2023/04/25 06:16:08;;;;;;;;;;;19.10;57.70;;;;;;6151835;28;19911;-69
2023/04/25 06:19:09;;;;;;;;;;;19.10;57.70;;;;;;6135205;29;19918;-71
2023/04/25 06:22:10;;;;;;;;;;;19.10;57.70;;;;;;6135278;29;20506;-70
2023/04/25 06:25:10;;;;;;;;;;;19.10;57.70;;;;;;6152372;28;19914;-70
2023/04/25 06:28:11;;;;;;;;;;;19.10;57.70;;;;;;6152267;29;19911;-69
2023/04/25 06:31:12;;;;;;;;;;;19.10;57.70;;;;;;6151873;28;19911;-70
2023/04/25 06:34:13;;;;;;;;;;;19.10;57.70;;;;;;6152252;29;19914;-70
2023/04/25 06:37:13;;;;;;;;;;;19.10;57.70;;;;;;6152184;29;19970;-70
2023/04/25 06:40:14;;;;;;;;;;;19.10;57.70;;;;;;6151316;29;20294;-69
2023/04/25 06:43:15;;;;;;;;;;;19.10;57.70;;;;;;6145752;29;19973;-69
2023/04/25 06:46:16;;;;;;;;;;;19.10;57.70;;;;;;6151657;28;20049;-70
2023/04/25 06:49:16;;;;;;;;;;;19.10;57.70;;;;;;6151987;29;19954;-70
2023/04/25 06:52:18;;;;;;;;;;;19.10;57.70;;;;;;6134358;29;19959;-69
2023/04/25 06:55:19;;;;;;;;;;;19.10;57.70;;;;;;6151418;28;19914;-70
2023/04/25 06:58:20;;;;;;;;;;;19.10;57.70;;;;;;6134337;29;19953;-70
2023/04/25 07:01:20;;;;;;;;;;;19.10;57.70;;;;;;6150654;29;19914;-70
2023/04/25 07:04:21;;;;;;;;;;;19.10;57.70;;;;;;6134064;29;19922;-69
2023/04/25 07:07:22;;;;;;;;;;;19.10;57.70;;;;;;6151530;28;19910;-70
2023/04/25 07:10:23;;;;;;;;;;;19.10;57.70;;;;;;6134062;29;19926;-69
2023/04/25 07:13:23;;;;;;;;;;;19.10;57.70;;;;;;6151541;29;20350;-70
2023/04/25 07:16:24;;;;;;;;;;;19.10;57.70;;;;;;6133581;29;19958;-70
2023/04/25 07:19:26;;;;;;;;;;;19.10;57.70;;;;;;6150275;29;19911;-70
2023/04/25 07:22:27;;;;;;;;;;;19.10;57.70;;;;;;6151145;29;20471;-69
2023/04/25 07:25:27;;;;;;;;;;;19.10;57.60;;;;;;6133962;28;19911;-70
2023/04/25 07:28:28;;;;;;;;;;;19.10;57.70;;;;;;6133695;29;19946;-69
2023/04/25 07:31:29;;;;;;;;;;;19.10;57.70;;;;;;6133738;29;19910;-70
2023/04/25 07:34:30;;;;;;;;;;;19.10;57.60;;;;;;6150773;29;19958;-69
2023/04/25 07:37:30;;;;;;;;;;;19.10;57.60;;;;;;6150871;28;20270;-70
2023/04/25 07:40:31;;;;;;;;;;;19.10;57.60;;;;;;6133480;29;19918;-70
2023/04/25 07:43:32;;;;;;;;;;;19.10;57.70;;;;;;6150169;28;19921;-70
2023/04/25 07:46:32;;;;;;;;;;;19.10;57.70;;;;;;6150666;28;20381;-69
2023/04/25 07:49:34;;;;;;;;;;;19.10;57.60;;;;;;6150639;29;20010;-70
2023/04/25 07:52:35;;;;;;;;;;;19.10;57.70;;;;;;6150532;29;20456;-69
2023/04/25 07:55:39;;;;;;;;;;;19.10;57.60;;;;;;6150668;28;19917;-69
2023/04/25 07:58:40;;;;;;;;;;;19.10;57.60;;;;;;6149051;29;19974;-70
2023/04/25 08:01:40;;;;;;;;;;;19.10;57.60;;;;;;6150357;29;20443;-69
2023/04/25 08:04:41;;;;;;;;;;;19.10;57.70;;;;;;6150142;29;19911;-69
2023/04/25 08:07:43;;;;;;;;;;;19.10;57.60;;;;;;6132965;29;19957;-69
2023/04/25 08:10:44;;;;;;;;;;;19.10;57.70;;;;;;6150008;29;19928;-70
2023/04/25 08:13:44;;;;;;;;;;;19.10;57.60;;;;;;6132962;29;19911;-69
2023/04/25 08:16:45;;;;;;;;;;;19.10;57.60;;;;;;6132844;29;19914;-69
2023/04/25 08:19:48;;;;;;;;;;;19.10;57.60;;;;;;6149555;29;20127;-69
2023/04/25 08:22:48;;;;;;;;;;;19.10;57.60;;;;;;6150104;29;19938;-70
2023/04/25 08:25:49;;;;;;;;;;;19.10;57.60;;;;;;6164824;28;19933;-71
2023/04/25 08:28:50;;;;;;;;;;;19.10;57.60;;;;;;6149901;29;19911;-69
2023/04/25 08:31:52;;;;;;;;;;;19.10;57.60;;;;;;6132820;29;20342;-69
2023/04/25 08:34:55;;;;;;;;;;;19.10;57.60;;;;;;6142975;28;19921;-69
2023/04/25 08:37:55;;;;;;;;;;;19.10;57.60;;;;;;6149688;29;19910;-69
2023/04/25 08:40:56;;;;;;;;;;;19.10;57.60;;;;;;6132570;29;20282;-70
2023/04/25 08:43:59;;;;;;;;;;;19.10;57.60;;;;;;6132190;29;19914;-69
2023/04/25 08:47:02;;;;;;;;;;;19.10;57.60;;;;;;6144093;28;19965;-70
2023/04/25 08:50:04;;;;;;;;;;;19.10;57.60;;;;;;6145485;29;19946;-69
2023/04/25 08:53:07;;;;;;;;;;;19.10;57.60;;;;;;6123795;29;19958;-70
2023/04/25 08:56:09;;;;;;;;;;;19.10;57.50;;;;;;6128835;29;19911;-69
2023/04/25 08:59:12;;;;;;;;;;;19.10;57.50;;;;;;6151070;29;19974;-69
2023/04/25 09:02:17;;;;;;;;;;;19.10;57.50;;;;;;6150233;29;19966;-70
2023/04/25 09:05:18;;;;;;;;;;;19.10;57.50;;;;;;6136512;29;19918;-71
2023/04/25 09:08:18;;;;;;;;;;;19.10;57.50;;;;;;6153243;29;20286;-69
2023/04/25 09:11:19;;;;;;;;;;;19.10;57.50;;;;;;6152571;29;19922;-70
2023/04/25 09:14:21;;;;;;;;;;;19.10;57.50;;;;;;6152121;29;19914;-70
2023/04/25 09:17:21;;;;;;;;;;;19.10;57.50;;;;;;6134547;29;19911;-70
2023/04/25 09:20:22;;;;;;;;;;;19.10;57.50;;;;;;6151127;29;20391;-70
2023/04/25 09:23:23;;;;;;;;;;;19.10;57.60;;;;;;6148352;29;19997;-70
2023/04/25 09:26:25;;;;;;;;;;;19.10;57.50;;;;;;6135485;29;19962;-69
2023/04/25 09:29:31;;;;;;;;;;;19.10;57.50;;;;;;6131338;29;19911;-69
2023/04/25 09:32:31;;;;;;;;;;;19.10;57.60;;;;;;6152515;29;20381;-69
2023/04/25 09:35:43;;;;;;;;;;;19.10;57.50;;;;;;6152010;29;20111;-69
2023/04/25 09:38:44;;;;;;;;;;;19.10;57.60;;;;;;6135995;29;20289;-69
2023/04/25 09:41:45;;;;;;;;;;;19.10;57.50;;;;;;6135595;29;19910;-70
2023/04/25 09:44:46;;;;;;;;;;;19.10;57.90;;;;;;6146738;29;19934;-69
2023/04/25 09:47:47;;;;;;;;;;;19.10;57.60;;;;;;6147525;28;19911;-70
2023/04/25 09:51:03;;;;;;;;;;;19.10;57.60;;;;;;6151175;29;19917;-70
2023/04/25 09:54:03;;;;;;;;;;;19.10;57.60;;;;;;6151725;29;19914;-69
2023/04/25 09:57:30;;;;;;;;;;;19.10;57.60;;;;;;6151993;29;20284;-70
2023/04/25 10:00:32;;;;;;;;;;;19.10;57.60;;;;;;6127397;28;20395;-70
2023/04/25 10:03:34;;;;;;;;;;;19.10;57.60;;;;;;6131851;29;19918;-70
2023/04/25 10:06:35;;;;;;;;;;;19.10;57.60;;;;;;6151311;28;19918;-70
2023/04/25 10:09:37;;;;;;;;;;;19.10;57.60;;;;;;6127673;29;19948;-70
2023/04/25 10:12:40;;;;;;;;;;;19.10;57.60;;;;;;6131763;29;19958;-70
2023/04/25 10:15:41;;;;;;;;;;;19.10;57.60;;;;;;6104764;29;19918;-70
2023/04/25 10:18:41;;;;;;;;;;;19.10;57.60;;;;;;6139797;29;19933;-70
2023/04/25 10:21:55;;;;;;;;;;;19.10;57.60;;;;;;6148424;29;20089;-70
2023/04/25 10:24:56;;;;;;;;;;;19.10;57.60;;;;;;6151455;28;19910;-70
2023/04/25 10:27:59;;;;;;;;;;;19.10;57.60;;;;;;6150114;29;19938;-70
2023/04/25 10:31:02;;;;;;;;;;;19.10;57.60;;;;;;6151146;29;19911;-71
2023/04/25 10:34:05;;;;;;;;;;;19.10;57.60;;;;;;6143114;29;19918;-70
2023/04/25 10:37:08;;;;;;;;;;;19.10;57.60;;;;;;6150257;28;20075;-70
2023/04/25 10:40:09;;;;;;;;;;;19.10;57.60;;;;;;6144249;29;19911;-70
2023/04/25 10:43:29;;;;;;;;;;;19.10;57.60;;;;;;6134010;29;20061;-70
2023/04/25 10:46:34;;;;;;;;;;;19.10;57.60;;;;;;6149950;28;19917;-71
2023/04/25 10:49:37;;;;;;;;;;;19.10;57.60;;;;;;6151672;29;19911;-70
2023/04/25 10:52:40;;;;;;;;;;;19.10;57.60;;;;;;6133902;29;19942;-70
2023/04/25 10:55:51;;;;;;;;;;;19.10;57.60;;;;;;6151564;28;19911;-69
2023/04/25 10:58:52;;;;;;;;;;;19.10;57.60;;;;;;6152145;29;19911;-70
2023/04/25 11:01:54;;;;;;;;;;;19.10;57.60;;;;;;6134494;29;19957;-69
2023/04/25 11:04:55;;;;;;;;;;;19.10;57.60;;;;;;6151707;28;19915;-69
2023/04/25 11:07:57;;;;;;;;;;;19.10;57.60;;;;;;6134057;29;20293;-69
2023/04/25 11:10:58;;;;;;;;;;;19.10;57.60;;;;;;6151967;29;19911;-69
2023/04/25 11:13:59;;;;;;;;;;;19.10;57.60;;;;;;6134342;29;20389;-69
2023/04/25 11:17:01;;;;;;;;;;;19.10;57.60;;;;;;6150650;28;19920;-69
2023/04/25 11:20:07;;;;;;;;;;;19.10;57.60;;;;;;6151458;29;20004;-69
2023/04/25 11:23:07;;;;;;;;;;;19.10;57.60;;;;;;6151599;29;19915;-69
2023/04/25 11:26:08;;;;;;;;;;;19.10;57.70;;;;;;6151260;28;19933;-69
2023/04/25 11:29:09;;;;;;;;;;;19.10;57.60;;;;;;6151185;29;19910;-69
2023/04/25 11:32:10;;;;;;;;;;;19.10;57.60;;;;;;6150924;29;19910;-69
2023/04/25 11:35:11;;;;;;;;;;;19.10;57.60;;;;;;6150963;28;19910;-69
2023/04/25 11:38:11;;;;;;;;;;;19.10;57.60;;;;;;6133705;29;19910;-69
2023/04/25 11:41:12;;;;;;;;;;;19.10;57.60;;;;;;6150937;29;19915;-70
2023/04/25 11:44:15;;;;;;;;;;;19.10;57.60;;;;;;6133687;29;19918;-69
2023/04/25 11:47:16;;;;;;;;;;;19.10;57.60;;;;;;6150766;28;19960;-70
2023/04/25 11:50:28;;;;;;;;;;;19.10;57.60;;;;;;6343663;27;20389;-70
2023/04/25 11:53:28;;;;;;;;;;;19.10;57.60;;;;;;6343334;28;20341;-70
2023/04/25 11:56:29;;;;;;;;;;;19.10;57.60;;;;;;6342064;28;19914;-70
2023/04/25 11:59:30;;;;;;;;;;;19.10;57.60;;;;;;6343536;28;19919;-71
2023/04/25 12:02:30;;;;;;;;;;;19.10;57.60;;;;;;6341981;28;19915;-70
2023/04/25 12:05:34;;;;;;;;;;;19.10;57.60;;;;;;6338482;28;19922;-69
2023/04/25 12:08:35;;;;;;;;;;;19.10;57.60;;;;;;6340667;28;19927;-72
2023/04/25 12:11:42;;;;;;;;;;;19.10;57.60;;;;;;6331546;28;19909;-70
2023/04/25 12:14:47;;;;;;;;;;;19.10;57.60;;;;;;6318107;28;19916;-70
2023/04/25 12:17:51;;;;;;;;;;;19.10;57.60;;;;;;6340958;28;19959;-70
2023/04/25 12:20:52;;;;;;;;;;;19.10;57.60;;;;;;6340700;28;19934;-70
2023/04/25 12:23:54;;;;;;;;;;;19.10;57.60;;;;;;6341410;28;20320;-70
2023/04/25 12:27:05;;;;;;;;;;;19.10;57.60;;;;;;6341405;28;19977;-71
2023/04/25 12:30:06;;;;;;;;;;;19.10;57.60;;;;;;6341199;28;19998;-71
2023/04/25 12:33:08;;;;;;;;;;;19.10;57.60;;;;;;6341172;28;19908;-71
2023/04/25 12:36:10;;;;;;;;;;;19.10;57.60;;;;;;6339971;28;19908;-71
2023/04/25 12:39:21;;;;;;;;;;;19.10;57.60;;;;;;6340874;28;19915;-69
2023/04/25 12:42:22;;;;;;;;;;;19.10;57.60;;;;;;6341332;28;19908;-69
2023/04/25 12:45:23;;;;;;;;;;;19.10;57.60;;;;;;6342442;28;19908;-71
2023/04/25 12:48:23;;;;;;;;;;;19.10;57.60;;;;;;6340541;28;19923;-71
2023/04/25 12:51:24;;;;;;;;;;;19.10;57.60;;;;;;6339657;28;20323;-72
2023/04/25 12:54:25;;;;;;;;;;;19.10;57.60;;;;;;6339755;28;19908;-71
2023/04/25 12:57:26;;;;;;;;;;;19.10;57.60;;;;;;6339839;28;19908;-71
2023/04/25 13:00:27;;;;;;;;;;;19.10;57.60;;;;;;6330965;28;19908;-71
2023/04/25 13:03:27;;;;;;;;;;;19.10;57.60;;;;;;6322436;28;19907;-72
2023/04/25 13:06:30;;;;;;;;;;;19.10;57.60;;;;;;6323387;28;19947;-72
2023/04/25 13:09:30;;;;;;;;;;;19.10;57.60;;;;;;6322504;28;19912;-71
2023/04/25 13:12:33;;;;;;;;;;;19.10;57.60;;;;;;6322528;28;20432;-70
2023/04/25 13:15:35;;;;;;;;;;;19.10;57.60;;;;;;6322715;28;19996;-69
2023/04/25 13:18:36;;;;;;;;;;;19.10;57.60;;;;;;6320940;28;19915;-71
2023/04/25 13:21:36;;;;;;;;;;;19.10;57.60;;;;;;6321139;28;19908;-71
2023/04/25 13:24:37;;;;;;;;;;;19.10;57.70;;;;;;6322772;28;20034;-71
2023/04/25 13:27:39;;;;;;;;;;;19.10;57.60;;;;;;6322048;28;19919;-71
2023/04/25 13:30:39;;;;;;;;;;;19.10;57.60;;;;;;6321807;28;19908;-71
2023/04/25 13:33:40;;;;;;;;;;;19.10;57.60;;;;;;6322241;28;19908;-71
2023/04/25 13:36:41;;;;;;;;;;;19.10;57.60;;;;;;6322369;28;19912;-70
2023/04/25 13:39:41;;;;;;;;;;;19.10;57.60;;;;;;6321976;28;19908;-71
2023/04/25 13:42:44;;;;;;;;;;;19.10;57.60;;;;;;6322387;28;19918;-70
2023/04/25 13:45:44;;;;;;;;;;;19.10;57.60;;;;;;6322037;28;20629;-71
2023/04/25 13:48:48;;;;;;;;;;;19.10;57.50;;;;;;6321776;28;19927;-69
2023/04/25 13:51:49;;;;;;;;;;;19.10;57.50;;;;;;6322133;28;19912;-70
2023/04/25 13:54:50;;;;;;;;;;;19.10;57.60;;;;;;6321838;28;19912;-71
2023/04/25 13:57:51;;;;;;;;;;;19.10;57.60;;;;;;6319688;28;19912;-71
2023/04/25 14:00:51;;;;;;;;;;;19.10;57.50;;;;;;6320251;28;19920;-69
2023/04/25 14:03:52;;;;;;;;;;;19.10;57.50;;;;;;6321921;28;19997;-70
2023/04/25 14:06:53;;;;;;;;;;;19.10;57.50;;;;;;6319969;28;20065;-71
2023/04/25 14:09:53;;;;;;;;;;;19.10;57.50;;;;;;6319792;28;19916;-71
2023/04/25 14:12:54;;;;;;;;;;;19.10;57.50;;;;;;6320414;28;19908;-70
2023/04/25 14:15:55;;;;;;;;;;;19.10;57.50;;;;;;6321511;28;19935;-71
2023/04/25 14:18:56;;;;;;;;;;;19.10;57.50;;;;;;6320497;28;19908;-71
2023/04/25 14:21:56;;;;;;;;;;;19.10;57.50;;;;;;6319993;28;20357;-71
2023/04/25 14:24:57;;;;;;;;;;;19.10;57.50;;;;;;6319357;28;20330;-71
2023/04/25 14:28:00;;;;;;;;;;;19.10;57.50;;;;;;6319153;28;19950;-71
2023/04/25 14:31:01;;;;;;;;;;;19.10;57.50;;;;;;6321047;28;19998;-71
2023/04/25 14:34:02;;;;;;;;;;;19.10;57.50;;;;;;6319738;28;19912;-71
2023/04/25 14:37:03;;;;;;;;;;;19.10;57.50;;;;;;6319409;28;20408;-71
2023/04/25 14:40:04;;;;;;;;;;;19.10;57.50;;;;;;6313453;28;20682;-71
2023/04/25 14:43:05;;;;;;;;;;;19.10;57.60;;;;;;6320585;28;19919;-71
2023/04/25 14:46:06;;;;;;;;;;;19.10;57.60;;;;;;6319405;28;19951;-71
2023/04/25 14:49:07;;;;;;;;;;;19.10;57.50;;;;;;6320008;28;19927;-71
2023/04/25 14:52:07;;;;;;;;;;;19.10;57.50;;;;;;6320882;28;20368;-71
2023/04/25 14:55:08;;;;;;;;;;;19.10;57.60;;;;;;6318904;28;19916;-71
2023/04/25 14:58:09;;;;;;;;;;;19.10;57.50;;;;;;6318951;28;19908;-71
2023/04/25 15:01:09;;;;;;;;;;;19.10;57.60;;;;;;6319389;28;19919;-72
2023/04/25 15:04:12;;;;;;;;;;;19.10;57.50;;;;;;6320650;28;19911;-71
2023/04/25 15:07:12;;;;;;;;;;;19.10;57.50;;;;;;6318784;28;19915;-70
2023/04/25 15:10:15;;;;;;;;;;;19.10;57.50;;;;;;6319190;28;19915;-71
2023/04/25 15:13:18;;;;;;;;;;;19.10;57.50;;;;;;6326865;28;20364;-71
2023/04/25 15:16:18;;;;;;;;;;;19.10;57.50;;;;;;6314932;28;19908;-70
2023/04/25 15:19:20;;;;;;;;;;;19.10;57.50;;;;;;6317508;28;19908;-71
2023/04/25 15:22:21;;;;;;;;;;;19.10;57.50;;;;;;6319023;28;19908;-71
2023/04/25 15:25:21;;;;;;;;;;;19.10;57.50;;;;;;6318014;28;19915;-71
2023/04/25 15:28:22;;;;;;;;;;;19.10;57.50;;;;;;6317563;28;19912;-70
2023/04/25 15:31:23;;;;;;;;;;;19.10;57.50;;;;;;6317796;28;20456;-70
2023/04/25 15:34:23;;;;;;;;;;;19.10;57.50;;;;;;6310067;28;19939;-70
2023/04/25 15:37:24;;;;;;;;;;;19.10;58.20;;;;;;6319326;28;19919;-70
2023/04/25 15:40:25;;;;;;;;;;;19.10;57.50;;;;;;6318335;28;19908;-70
2023/04/25 15:43:25;;;;;;;;;;;19.10;57.50;;;;;;6318158;28;20373;-69
2023/04/25 15:46:26;;;;;;;;;;;19.10;57.50;;;;;;6319436;28;19914;-70
2023/04/25 15:49:27;;;;;;;;;;;19.10;57.50;;;;;;6317543;28;19977;-70
2023/04/25 15:52:28;;;;;;;;;;;19.10;57.60;;;;;;6319368;28;19942;-69
2023/04/25 15:55:28;;;;;;;;;;;19.10;57.50;;;;;;6318625;28;19908;-70
2023/04/25 15:58:29;;;;;;;;;;;19.10;57.50;;;;;;6313305;28;20284;-71
2023/04/25 16:01:30;;;;;;;;;;;19.10;57.50;;;;;;6315360;28;20006;-70
2023/04/25 16:04:34;;;;;;;;;;;19.10;57.50;;;;;;6319119;28;20322;-70
2023/04/25 16:07:35;;;;;;;;;;;19.10;57.50;;;;;;6318757;28;19919;-70
2023/04/25 16:10:35;;;;;;;;;;;19.10;57.50;;;;;;6318700;28;20388;-70
2023/04/25 16:13:36;;;;;;;;;;;19.10;57.60;;;;;;6317823;28;19912;-70
2023/04/25 16:16:37;;;;;;;;;;;19.10;57.60;;;;;;6316897;28;19949;-70
2023/04/25 16:19:38;;;;;;;;;;;19.10;57.50;;;;;;6315129;28;19919;-70
2023/04/25 16:22:39;;;;;;;;;;;19.10;57.50;;;;;;6317101;28;20331;-71
2023/04/25 16:25:41;;;;;;;;;;;19.10;57.50;;;;;;6317092;28;19916;-70
2023/04/25 16:28:43;;;;;;;;;;;19.10;57.50;;;;;;6316376;28;19916;-70
2023/04/25 16:31:45;;;;;;;;;;;19.10;57.60;;;;;;6316754;28;19916;-69
2023/04/25 16:34:46;;;;;;;;;;;19.10;58.20;;;;;;6316090;28;19908;-69
2023/04/25 16:37:47;;;;;;;;;;;19.10;57.50;;;;;;6321127;28;19951;-70
2023/04/25 16:40:47;;;;;;;;;;;19.10;57.60;;;;;;6319332;28;19916;-70
2023/04/25 16:43:48;;;;;;;;;;;19.10;57.50;;;;;;6320958;28;19908;-68
2023/04/25 16:46:49;;;;;;;;;;;19.10;57.60;;;;;;6320253;28;19908;-68
2023/04/25 16:49:50;;;;;;;;;;;19.10;57.50;;;;;;6320438;28;19920;-70
2023/04/25 16:52:50;;;;;;;;;;;19.10;57.50;;;;;;6319459;28;20480;-70
2023/04/25 16:55:51;;;;;;;;;;;19.10;57.50;;;;;;6319319;28;19912;-70
2023/04/25 16:58:52;;;;;;;;;;;19.10;57.50;;;;;;6311772;28;19913;-70
2023/04/25 17:01:53;;;;;;;;;;;19.10;57.60;;;;;;6305749;28;19995;-70
2023/04/25 17:04:53;;;;;;;;;;;19.10;57.60;;;;;;6317253;28;20397;-70
2023/04/25 17:07:55;;;;;;;;;;;19.10;57.60;;;;;;6318943;28;20426;-70
2023/04/25 17:10:56;;;;;;;;;;;19.10;57.60;;;;;;6320279;28;19908;-69
2023/04/25 17:13:56;;;;;;;;;;;19.10;57.60;;;;;;6320946;28;19908;-68
2023/04/25 17:16:57;;;;;;;;;;;19.10;57.50;;;;;;6320333;28;19908;-68
2023/04/25 17:19:57;;;;;;;;;;;19.10;57.50;;;;;;6320096;28;19909;-68
2023/04/25 17:22:58;;;;;;;;;;;19.10;58.00;;;;;;6320281;28;19954;-68
2023/04/25 17:25:59;;;;;;;;;;;19.20;57.50;;;;;;6328202;28;19920;-68
2023/04/25 17:29:00;;;;;;;;;;;19.20;57.40;;;;;;6311829;28;20625;-68
2023/04/25 17:32:00;;;;;;;;;;;19.20;57.90;;;;;;6312632;28;19915;-68
2023/04/25 17:35:01;;;;;;;;;;;19.30;57.10;;;;;;6306181;28;19908;-67
2023/04/25 17:38:02;;;;;;;;;;;19.30;57.10;;;;;;6319521;28;19909;-68